This is the latest recevied weather packets stored in our database for station/object KD2DXJ. If no packets are shown the sender has not sent any weather packets the latest 1 day(s).
| Time | Temp. | Humidity | Pressure | Rain* | Wind** | Luminosity | Snow |
|---|---|---|---|---|---|---|---|
| 1778033991 | 7.78° C | 99% | 1008.9 hPa | 2.29 mm | - | 0 W/m² | - |
| 1778033688 | 7.78° C | 99% | 1009.2 hPa | 1.27 mm | - | 0 W/m² | - |
| 1778033385 | 7.78° C | 99% | 1008.9 hPa | 1.78 mm | - | 0 W/m² | - |
| 1778033083 | 7.78° C | 99% | 1009 hPa | 1.78 mm | - | 0 W/m² | - |
| 1778032780 | 8.33° C | 99% | 1008.9 hPa | 1.27 mm | - | 0 W/m² | - |
| 1778032477 | 8.33° C | 99% | 1008.8 hPa | 3.05 mm | - | 0 W/m² | - |
| 1778032174 | 8.33° C | 99% | 1008.7 hPa | 3.05 mm | - | 0 W/m² | - |
| 1778031871 | 8.33° C | 99% | 1008.8 hPa | 2.29 mm | - | 0 W/m² | - |
| 1778031567 | 8.33° C | 99% | 1008.7 hPa | 3.05 mm | - | 0 W/m² | - |
| 1778031266 | 8.33° C | 99% | 1008.8 hPa | 3.05 mm | - | 0 W/m² | - |
| 1778030961 | 8.33° C | 99% | 1008.7 hPa | 3.05 mm | - | 0 W/m² | - |
| 1778030658 | 8.33° C | 99% | 1008.6 hPa | 3.05 mm | - | 0 W/m² | - |
| 1778030355 | 8.33° C | 99% | 1008.8 hPa | 1.27 mm | - | 0 W/m² | - |
| 1778029749 | 8.33° C | 99% | 1008.7 hPa | 3.05 mm | - | 0 W/m² | - |
| 1778029448 | 8.89° C | 98% | 1008.6 hPa | 3.05 mm | - | 0 W/m² | - |
| 1778028537 | 8.89° C | 98% | 1008.8 hPa | 2.29 mm | - | 0 W/m² | - |
| 1778028235 | 8.89° C | 98% | 1008.6 hPa | 3.05 mm | - | 0 W/m² | - |
| 1778027931 | 8.89° C | 98% | 1008.7 hPa | 3.05 mm | - | 0 W/m² | - |
| 1778027324 | 8.89° C | 97% | 1008.6 hPa | 2.29 mm | - | 0 W/m² | - |
| 1778027020 | 8.89° C | 97% | 1008.2 hPa | 3.05 mm | - | 0 W/m² | - |
| 1778026716 | 9.44° C | 96% | 1008.1 hPa | 3.05 mm | - | 0 W/m² | - |
| 1778026413 | 9.44° C | 95% | 1008 hPa | 3.05 mm | - | 0 W/m² | - |
| 1778026110 | 9.44° C | 94% | 1008 hPa | 1.78 mm | - | 0 W/m² | - |
| 1778024597 | 11.67° C | 83% | 1007.5 hPa | 1.78 mm | - | 1 W/m² | - |
| 1778022175 | 14.44° C | 66% | 1005.9 hPa | 0 mm | - | 7 W/m² | - |
* Rain latest hour (hover to see other rain measurements)
** Current wind speed in m/s (hover to see current wind gust speed)